Time;durP1;ratioP1;P1;durP2;ratioP2;P2;SDS_P1;SDS_P2;PMS_P1;PMS_P2;Temp;Humidity;BMP_temperature;BMP_pressure;BME280_temperature;BME280_humidity;BME280_pressure;Samples;Min_cycle;Max_cycle;Signal;HPM_P1;HPM_P2
2023/03/04 00:00:44;;;;;;;1.92;1.38;;;18.80;50.10;;;;;;6243517;28;20030;-69
2023/03/04 00:03:45;;;;;;;1.48;1.25;;;18.70;50.00;;;;;;6243620;28;20022;-70
2023/03/04 00:06:45;;;;;;;1.70;1.30;;;18.80;50.10;;;;;;6243306;28;20029;-69
2023/03/04 00:09:46;;;;;;;1.65;1.23;;;18.80;50.10;;;;;;6243418;28;20029;-69
2023/03/04 00:12:47;;;;;;;1.50;1.17;;;18.80;50.10;;;;;;6243395;28;20113;-69
2023/03/04 00:15:48;;;;;;;1.80;1.40;;;18.80;50.10;;;;;;6243235;28;20033;-69
2023/03/04 00:18:48;;;;;;;1.80;1.42;;;18.80;50.10;;;;;;6246819;28;20172;-69
2023/03/04 00:21:49;;;;;;;1.83;1.48;;;18.80;50.10;;;;;;6248640;28;20026;-70
2023/03/04 00:24:50;;;;;;;2.67;1.50;;;18.80;50.10;;;;;;6248413;28;20017;-69
2023/03/04 00:27:50;;;;;;;2.13;1.50;;;18.80;50.10;;;;;;6248418;28;20052;-69
2023/03/04 00:30:51;;;;;;;1.63;1.35;;;18.80;50.10;;;;;;6248558;28;20844;-69
2023/03/04 00:33:52;;;;;;;3.45;1.23;;;18.70;50.00;;;;;;6242452;28;20045;-69
2023/03/04 00:36:52;;;;;;;2.03;1.40;;;18.70;50.10;;;;;;6238514;28;20030;-69
2023/03/04 00:39:53;;;;;;;1.77;1.42;;;18.70;50.00;;;;;;6223973;28;20140;-69
2023/03/04 00:42:54;;;;;;;1.70;1.35;;;18.70;50.00;;;;;;6222351;28;20050;-69
2023/03/04 00:45:54;;;;;;;1.92;1.50;;;18.70;50.00;;;;;;6237574;28;20025;-70
2023/03/04 00:48:55;;;;;;;1.48;1.30;;;18.70;50.00;;;;;;6247940;28;20105;-69
2023/03/04 00:51:56;;;;;;;1.90;1.50;;;18.70;50.00;;;;;;6248102;28;20483;-69
2023/03/04 00:54:56;;;;;;;2.17;1.40;;;18.70;50.70;;;;;;6248010;28;20349;-69
2023/03/04 00:57:57;;;;;;;2.05;1.40;;;18.80;50.10;;;;;;6247694;28;20560;-69
2023/03/04 01:00:58;;;;;;;1.30;1.20;;;18.80;50.10;;;;;;6247651;28;20044;-69
2023/03/04 01:03:58;;;;;;;2.08;1.30;;;18.80;50.10;;;;;;6247828;28;20026;-69
2023/03/04 01:06:59;;;;;;;1.63;1.30;;;18.70;50.00;;;;;;6247461;28;20021;-69
2023/03/04 01:10:00;;;;;;;1.52;1.20;;;18.70;50.00;;;;;;6247472;28;20123;-69
2023/03/04 01:13:01;;;;;;;2.28;1.40;;;18.70;50.00;;;;;;6247476;28;20045;-69
2023/03/04 01:16:02;;;;;;;2.03;1.60;;;18.70;50.00;;;;;;6246245;28;20036;-69
2023/03/04 01:19:03;;;;;;;2.42;1.63;;;18.70;50.00;;;;;;6247252;28;20041;-69
2023/03/04 01:22:04;;;;;;;3.65;1.40;;;18.70;50.00;;;;;;6247163;28;20493;-69
2023/03/04 01:25:05;;;;;;;1.80;1.30;;;18.70;50.00;;;;;;6245690;28;20017;-69
2023/03/04 01:28:06;;;;;;;2.65;1.67;;;18.70;49.90;;;;;;6246928;28;20394;-69
2023/03/04 01:31:07;;;;;;;2.33;1.70;;;18.70;50.00;;;;;;6245838;28;20033;-69
2023/03/04 01:34:08;;;;;;;1.58;1.20;;;18.70;50.00;;;;;;6246729;28;20053;-69
2023/03/04 01:37:10;;;;;;;3.30;1.55;;;18.70;49.90;;;;;;6245260;28;20026;-69
2023/03/04 01:40:12;;;;;;;2.00;1.35;;;18.70;49.90;;;;;;6246519;28;20056;-70
2023/03/04 01:43:23;;;;;;;2.45;1.60;;;18.70;49.90;;;;;;6246909;28;20643;-69
2023/03/04 01:46:24;;;;;;;1.45;1.23;;;18.70;49.90;;;;;;6246780;28;20474;-69
2023/03/04 01:49:25;;;;;;;2.65;1.30;;;18.70;49.90;;;;;;6246423;28;20033;-69
2023/03/04 01:52:26;;;;;;;1.90;1.33;;;18.70;50.60;;;;;;6246695;28;20060;-69
2023/03/04 01:55:29;;;;;;;2.38;1.25;;;18.70;49.90;;;;;;6246389;28;20083;-69
2023/03/04 01:58:31;;;;;;;1.98;1.20;;;18.70;49.90;;;;;;6246310;28;20033;-69
2023/03/04 02:01:32;;;;;;;2.03;1.38;;;18.70;49.80;;;;;;6240323;28;20047;-70
2023/03/04 02:04:33;;;;;;;2.20;1.40;;;18.70;49.80;;;;;;6246387;28;20072;-69
2023/03/04 02:07:34;;;;;;;3.17;1.50;;;18.70;49.90;;;;;;6245941;28;20569;-69
2023/03/04 02:10:35;;;;;;;3.08;1.55;;;18.70;49.90;;;;;;6245840;28;20036;-69
2023/03/04 02:13:36;;;;;;;2.20;1.50;;;18.70;49.90;;;;;;6244771;28;20040;-69
2023/03/04 02:16:37;;;;;;;2.15;1.40;;;18.70;49.90;;;;;;6245811;28;20029;-69
2023/03/04 02:19:44;;;;;;;2.05;1.50;;;18.70;49.90;;;;;;6244754;28;20021;-69
2023/03/04 02:23:34;;;;;;;1.92;1.23;;;18.70;49.90;;;;;;6245944;28;20097;-69
2023/03/04 02:26:35;;;;;;;3.75;1.35;;;18.70;49.90;;;;;;6236553;28;20064;-70
2023/03/04 02:29:36;;;;;;;2.42;1.40;;;18.70;49.90;;;;;;6245382;28;20071;-70
2023/03/04 02:32:37;;;;;;;2.13;1.20;;;18.70;49.90;;;;;;6245431;28;20548;-69
2023/03/04 02:35:37;;;;;;;2.33;1.17;;;18.70;49.90;;;;;;6244138;28;20050;-70
2023/03/04 02:38:38;;;;;;;2.85;1.20;;;18.70;49.90;;;;;;6245180;28;20022;-70
2023/03/04 02:41:39;;;;;;;1.98;1.17;;;18.70;49.90;;;;;;6243526;28;20021;-69
2023/03/04 02:44:45;;;;;;;2.08;1.30;;;18.70;49.90;;;;;;6245131;28;20436;-69
2023/03/04 02:47:46;;;;;;;2.08;1.30;;;18.70;49.90;;;;;;6235543;28;20041;-70
2023/03/04 02:50:52;;;;;;;2.55;1.25;;;18.70;49.90;;;;;;6219339;28;20033;-69
2023/03/04 02:53:52;;;;;;;2.22;1.33;;;18.70;49.90;;;;;;6220577;28;20046;-70
2023/03/04 02:56:58;;;;;;;3.15;1.50;;;18.70;49.90;;;;;;6224697;28;20022;-69
2023/03/04 02:59:59;;;;;;;2.08;1.30;;;18.70;49.90;;;;;;6243238;28;20032;-69
2023/03/04 03:02:59;;;;;;;1.90;1.10;;;18.70;50.00;;;;;;6244712;28;20479;-69
2023/03/04 03:06:00;;;;;;;2.40;1.17;;;18.70;50.00;;;;;;6244549;28;20032;-70
2023/03/04 03:09:02;;;;;;;2.00;1.25;;;18.70;49.90;;;;;;6244513;28;20034;-69
2023/03/04 03:12:03;;;;;;;2.80;1.15;;;18.70;49.90;;;;;;6244192;28;20036;-69
2023/03/04 03:15:04;;;;;;;1.98;1.00;;;18.70;49.90;;;;;;6243250;28;20034;-69
2023/03/04 03:18:04;;;;;;;2.50;1.08;;;18.70;49.90;;;;;;6244188;28;20026;-69
2023/03/04 03:21:05;;;;;;;1.38;1.05;;;18.70;49.90;;;;;;6244506;28;20116;-69
2023/03/04 03:24:06;;;;;;;1.63;1.10;;;18.70;49.90;;;;;;6243975;28;20052;-69
2023/03/04 03:27:07;;;;;;;1.90;1.00;;;18.70;49.90;;;;;;6244369;28;20447;-69
2023/03/04 03:30:10;;;;;;;3.30;1.20;;;18.70;49.90;;;;;;6243781;28;20099;-70
2023/03/04 03:33:11;;;;;;;3.25;1.38;;;18.70;49.90;;;;;;6243891;28;20541;-69
2023/03/04 03:36:11;;;;;;;2.55;1.33;;;18.70;49.90;;;;;;6239116;28;20049;-69
2023/03/04 03:39:14;;;;;;;2.38;1.35;;;18.70;49.90;;;;;;6243705;28;20397;-69
2023/03/04 03:42:15;;;;;;;1.70;1.10;;;18.70;50.00;;;;;;6243828;28;20013;-69
2023/03/04 03:45:16;;;;;;;1.80;1.05;;;18.70;49.90;;;;;;6243967;28;20021;-69
2023/03/04 03:48:17;;;;;;;2.35;1.10;;;18.70;49.90;;;;;;6244032;28;20063;-69
2023/03/04 03:51:18;;;;;;;2.35;1.20;;;18.70;50.00;;;;;;6242649;28;20037;-69
2023/03/04 03:54:18;;;;;;;1.52;1.15;;;18.70;50.00;;;;;;6242504;28;20021;-69
2023/03/04 03:57:19;;;;;;;1.42;1.08;;;18.70;50.00;;;;;;6243566;28;20031;-69
2023/03/04 04:00:20;;;;;;;2.47;1.23;;;18.60;50.60;;;;;;6243572;28;20052;-69
2023/03/04 04:03:21;;;;;;;2.25;1.10;;;18.60;49.90;;;;;;6242703;28;20025;-69
2023/03/04 04:06:21;;;;;;;2.17;0.95;;;18.60;49.90;;;;;;6242450;28;20121;-69
2023/03/04 04:09:22;;;;;;;2.70;1.10;;;18.70;50.00;;;;;;6243208;28;20359;-69
2023/03/04 04:12:23;;;;;;;1.95;0.95;;;18.70;50.00;;;;;;6243220;28;20029;-69
2023/03/04 04:15:23;;;;;;;3.03;1.25;;;18.70;50.00;;;;;;6243505;28;20508;-69
2023/03/04 04:18:24;;;;;;;1.70;1.02;;;18.70;50.00;;;;;;6242159;28;20472;-69
2023/03/04 04:21:25;;;;;;;1.38;0.90;;;18.70;50.00;;;;;;6243214;28;20550;-69
2023/03/04 04:24:26;;;;;;;1.20;1.00;;;18.70;50.00;;;;;;6243246;28;20052;-69
2023/03/04 04:27:26;;;;;;;1.90;1.08;;;18.70;50.00;;;;;;6242143;28;20033;-69
2023/03/04 04:30:27;;;;;;;1.85;1.08;;;18.70;50.00;;;;;;6243087;28;20427;-69
2023/03/04 04:33:28;;;;;;;2.50;1.38;;;18.70;50.10;;;;;;6242992;28;20454;-69
2023/03/04 04:36:28;;;;;;;1.60;0.98;;;18.70;50.00;;;;;;6243955;28;20033;-69
2023/03/04 04:39:29;;;;;;;3.22;1.13;;;18.70;50.00;;;;;;6242588;28;20534;-70
2023/03/04 04:42:30;;;;;;;2.40;1.00;;;18.70;50.00;;;;;;6243370;28;20032;-70
2023/03/04 04:45:30;;;;;;;1.95;1.10;;;18.60;49.90;;;;;;6241726;28;20025;-69
2023/03/04 04:48:31;;;;;;;1.98;1.00;;;18.70;50.00;;;;;;6243132;28;20025;-69
2023/03/04 04:51:33;;;;;;;2.03;0.95;;;18.70;50.10;;;;;;6242867;28;20474;-69
2023/03/04 04:54:34;;;;;;;1.73;0.85;;;18.70;50.00;;;;;;6242987;28;20475;-69
2023/03/04 04:57:35;;;;;;;1.65;0.88;;;18.60;49.90;;;;;;6242819;28;20026;-70
2023/03/04 05:00:36;;;;;;;2.88;1.02;;;18.70;50.00;;;;;;6242819;28;20017;-69
2023/03/04 05:03:37;;;;;;;1.55;0.93;;;18.70;50.00;;;;;;6245026;28;20024;-69
2023/03/04 05:06:38;;;;;;;1.08;0.75;;;18.70;50.00;;;;;;6246798;28;20026;-69
2023/03/04 05:09:38;;;;;;;2.42;1.08;;;18.70;50.00;;;;;;6247161;28;20022;-69
2023/03/04 05:12:39;;;;;;;3.67;1.40;;;18.70;50.00;;;;;;6247151;28;20017;-69
2023/03/04 05:15:40;;;;;;;1.33;0.80;;;18.70;50.70;;;;;;6247204;28;20026;-69
2023/03/04 05:18:41;;;;;;;1.98;0.95;;;18.70;50.10;;;;;;6246893;28;20033;-69
2023/03/04 05:21:42;;;;;;;1.70;0.90;;;18.70;50.00;;;;;;6247249;28;20037;-69
2023/03/04 05:24:42;;;;;;;1.20;0.90;;;18.70;50.00;;;;;;6246944;28;20477;-69
2023/03/04 05:27:44;;;;;;;2.85;0.88;;;18.70;50.00;;;;;;6246896;28;20479;-69
2023/03/04 05:30:45;;;;;;;2.00;0.85;;;18.70;50.00;;;;;;6246756;28;20492;-69
2023/03/04 05:33:46;;;;;;;1.42;0.93;;;18.60;49.90;;;;;;6241525;28;20403;-69
2023/03/04 05:36:46;;;;;;;3.80;1.08;;;18.70;50.00;;;;;;6245494;28;20026;-69
2023/03/04 05:39:47;;;;;;;1.65;0.80;;;18.70;50.00;;;;;;6245357;28;20022;-69
2023/03/04 05:42:47;;;;;;;1.40;0.95;;;18.70;50.00;;;;;;6246780;28;20017;-69
2023/03/04 05:45:48;;;;;;;1.25;0.80;;;18.70;50.00;;;;;;6250764;28;20063;-69
2023/03/04 05:48:50;;;;;;;2.03;1.00;;;18.70;50.00;;;;;;6261821;28;20048;-69
2023/03/04 05:51:50;;;;;;;1.50;0.70;;;18.70;50.10;;;;;;6246230;28;20048;-69
2023/03/04 05:54:51;;;;;;;1.25;0.82;;;18.70;50.00;;;;;;6246407;28;20371;-70
2023/03/04 05:57:52;;;;;;;1.67;0.80;;;18.70;50.10;;;;;;6246433;28;20063;-69
2023/03/04 06:00:53;;;;;;;1.55;0.88;;;18.70;50.10;;;;;;6244528;28;20022;-69
2023/03/04 06:03:54;;;;;;;1.77;0.90;;;18.70;50.00;;;;;;6221465;28;20088;-69
2023/03/04 06:06:54;;;;;;;1.80;0.70;;;18.60;50.00;;;;;;6221527;28;20025;-69
2023/03/04 06:09:55;;;;;;;2.00;0.90;;;18.70;50.10;;;;;;6221506;28;20034;-69
2023/03/04 06:12:56;;;;;;;1.13;0.63;;;18.70;50.00;;;;;;6221408;28;20109;-69
2023/03/04 06:15:58;;;;;;;1.88;0.88;;;18.70;50.00;;;;;;6220752;28;20097;-69
2023/03/04 06:18:58;;;;;;;1.45;0.63;;;18.70;50.00;;;;;;6237729;28;20029;-70
2023/03/04 06:21:59;;;;;;;1.48;0.73;;;18.70;50.10;;;;;;6236915;28;20022;-70
2023/03/04 06:25:00;;;;;;;0.93;0.70;;;18.60;49.90;;;;;;6237118;28;20054;-69
2023/03/04 06:28:01;;;;;;;1.50;0.80;;;18.60;50.00;;;;;;6236839;28;20033;-68
2023/03/04 06:31:01;;;;;;;2.85;0.80;;;18.60;49.90;;;;;;6243003;28;20490;-68
2023/03/04 06:34:02;;;;;;;2.58;0.95;;;18.60;50.00;;;;;;6239033;28;20049;-69
2023/03/04 06:37:03;;;;;;;1.88;0.93;;;18.60;50.00;;;;;;6220605;28;20113;-69
2023/03/04 06:40:04;;;;;;;1.65;0.82;;;18.60;50.00;;;;;;6220904;28;20033;-69
2023/03/04 06:43:05;;;;;;;2.20;0.90;;;18.60;50.00;;;;;;6245162;28;20049;-69
2023/03/04 06:46:09;;;;;;;2.00;0.90;;;18.60;50.00;;;;;;6244959;28;20040;-69
2023/03/04 06:49:10;;;;;;;1.40;0.90;;;18.60;50.00;;;;;;6244652;28;20494;-69
2023/03/04 06:52:11;;;;;;;1.67;0.80;;;18.60;50.00;;;;;;6245303;28;20041;-69
2023/03/04 06:55:12;;;;;;;1.40;0.68;;;18.60;50.00;;;;;;6243735;28;20040;-69
2023/03/04 06:58:13;;;;;;;1.13;0.70;;;18.60;50.00;;;;;;6244079;28;20065;-70
2023/03/04 07:01:16;;;;;;;1.48;0.63;;;18.60;50.00;;;;;;6243154;28;20494;-69
2023/03/04 07:04:17;;;;;;;1.65;0.60;;;18.60;50.10;;;;;;6243400;28;20021;-69
2023/03/04 07:07:17;;;;;;;1.98;0.80;;;18.60;50.00;;;;;;6244543;28;20056;-69
2023/03/04 07:10:18;;;;;;;0.70;0.50;;;18.60;50.20;;;;;;6244431;28;20029;-69
2023/03/04 07:13:19;;;;;;;1.60;0.65;;;18.60;50.00;;;;;;6243037;28;20025;-69
2023/03/04 07:16:22;;;;;;;1.38;0.70;;;18.60;50.00;;;;;;6244128;28;20091;-69
2023/03/04 07:19:22;;;;;;;0.82;0.60;;;18.60;50.10;;;;;;6244322;28;20021;-69
2023/03/04 07:22:23;;;;;;;1.17;0.60;;;18.60;50.00;;;;;;6244519;28;20032;-69
2023/03/04 07:25:24;;;;;;;2.63;1.00;;;18.60;50.00;;;;;;6244282;28;20025;-69
2023/03/04 07:28:25;;;;;;;0.80;0.60;;;18.60;50.00;;;;;;6244179;28;20273;-70
2023/03/04 07:31:29;;;;;;;1.40;0.90;;;18.60;50.10;;;;;;6244174;28;20030;-70
2023/03/04 07:34:29;;;;;;;1.58;0.80;;;18.60;50.10;;;;;;6232630;28;20045;-70
2023/03/04 07:37:30;;;;;;;1.13;0.68;;;18.60;50.20;;;;;;6230581;28;20041;-70
2023/03/04 07:40:31;;;;;;;1.35;0.90;;;18.60;50.10;;;;;;6243201;28;20096;-70
2023/03/04 07:43:31;;;;;;;1.20;0.80;;;18.60;50.00;;;;;;6244053;28;20104;-70
2023/03/04 07:46:33;;;;;;;1.52;0.70;;;18.60;50.00;;;;;;6243756;28;20092;-70
2023/03/04 07:49:33;;;;;;;1.05;0.73;;;18.60;50.10;;;;;;6243441;28;20028;-70
2023/03/04 07:52:41;;;;;;;1.75;0.55;;;18.60;50.10;;;;;;6234961;28;20491;-70
2023/03/04 07:55:42;;;;;;;1.27;0.70;;;18.60;50.00;;;;;;6241308;28;20134;-71
2023/03/04 07:58:43;;;;;;;0.70;0.60;;;18.60;50.10;;;;;;6253632;28;20021;-70
2023/03/04 08:01:44;;;;;;;1.58;0.65;;;18.60;50.10;;;;;;6243442;28;20032;-70
2023/03/04 08:04:45;;;;;;;1.70;0.88;;;18.60;50.00;;;;;;6243255;28;20017;-71
2023/03/04 08:07:46;;;;;;;1.83;0.80;;;18.60;50.10;;;;;;6242155;28;20064;-71
2023/03/04 08:10:46;;;;;;;0.82;0.57;;;18.60;50.00;;;;;;6258788;28;20037;-70
2023/03/04 08:13:48;;;;;;;1.33;0.52;;;18.60;50.10;;;;;;6243378;28;20176;-70
2023/03/04 08:16:49;;;;;;;1.73;0.75;;;18.60;50.10;;;;;;6243128;28;20025;-70
2023/03/04 08:19:49;;;;;;;0.82;0.50;;;18.60;50.00;;;;;;6243313;28;20057;-70
2023/03/04 08:22:50;;;;;;;0.93;0.55;;;18.60;50.10;;;;;;6241887;28;20024;-70
2023/03/04 08:25:51;;;;;;;1.55;0.68;;;18.60;50.20;;;;;;6242926;28;20022;-70
2023/03/04 08:28:53;;;;;;;1.23;0.50;;;18.60;50.10;;;;;;6242830;28;20036;-70
2023/03/04 08:31:54;;;;;;;0.90;0.60;;;18.60;50.10;;;;;;6243278;28;20021;-70
2023/03/04 08:34:56;;;;;;;0.82;0.55;;;18.60;50.10;;;;;;6235011;28;20080;-70
2023/03/04 08:37:57;;;;;;;1.17;0.60;;;18.60;50.10;;;;;;6243941;28;20398;-70
2023/03/04 08:40:58;;;;;;;1.00;0.50;;;18.60;50.10;;;;;;6248224;28;20025;-70
2023/03/04 08:43:59;;;;;;;1.00;0.60;;;18.60;50.10;;;;;;6246852;28;20021;-70
2023/03/04 08:47:00;;;;;;;1.15;0.50;;;18.60;50.00;;;;;;6248193;28;20045;-71
2023/03/04 08:50:01;;;;;;;0.43;0.40;;;18.60;50.00;;;;;;6246640;28;20424;-70
2023/03/04 08:53:01;;;;;;;1.10;0.50;;;18.60;50.10;;;;;;6247336;28;20068;-70
2023/03/04 08:56:02;;;;;;;1.65;0.70;;;18.60;50.70;;;;;;6247281;28;20036;-70
2023/03/04 08:59:03;;;;;;;1.30;0.70;;;18.60;50.00;;;;;;6246275;28;20025;-70
2023/03/04 09:02:04;;;;;;;1.08;0.60;;;18.60;50.10;;;;;;6247931;28;20025;-70
2023/03/04 09:05:05;;;;;;;1.23;0.50;;;18.60;50.00;;;;;;6246287;28;20047;-71
2023/03/04 09:08:06;;;;;;;1.50;0.80;;;18.60;50.10;;;;;;6247282;28;20036;-71
2023/03/04 09:11:07;;;;;;;0.60;0.40;;;18.60;50.00;;;;;;6245874;28;20540;-70
2023/03/04 09:14:08;;;;;;;1.13;0.60;;;18.60;50.00;;;;;;6246705;28;20475;-69
2023/03/04 09:17:09;;;;;;;1.27;0.60;;;18.60;50.00;;;;;;6247785;28;20029;-71
2023/03/04 09:20:12;;;;;;;1.10;0.50;;;18.60;49.90;;;;;;6247321;28;20041;-69
2023/03/04 09:23:13;;;;;;;1.85;0.68;;;18.60;50.00;;;;;;6246692;28;20022;-70
2023/03/04 09:26:23;;;;;;;0.90;0.70;;;18.60;50.20;;;;;;6247165;28;20017;-70
2023/03/04 09:29:23;;;;;;;0.47;0.40;;;18.60;50.10;;;;;;6245338;28;20057;-70
2023/03/04 09:32:24;;;;;;;0.90;0.50;;;18.60;50.10;;;;;;6246444;28;20035;-70
2023/03/04 09:35:25;;;;;;;1.75;0.75;;;18.60;50.70;;;;;;6243806;28;20049;-70
2023/03/04 09:38:26;;;;;;;0.73;0.50;;;18.60;50.00;;;;;;6246462;28;20034;-71
2023/03/04 09:41:44;;;;;;;1.38;0.70;;;18.60;49.90;;;;;;6244939;28;20033;-70
2023/03/04 09:44:46;;;;;;;1.88;0.70;;;18.60;50.10;;;;;;6246127;28;20508;-70
2023/03/04 09:47:50;;;;;;;1.33;0.73;;;18.60;50.00;;;;;;6246482;28;20033;-70
2023/03/04 09:51:28;;;;;;;1.52;0.50;;;18.60;50.00;;;;;;6244681;28;20037;-70
2023/03/04 09:54:36;;;;;;;0.73;0.50;;;18.60;49.90;;;;;;6244886;28;20033;-70
2023/03/04 09:57:36;;;;;;;1.10;0.60;;;18.60;49.90;;;;;;6244977;28;20028;-70
2023/03/04 10:00:50;;;;;;;1.23;0.63;;;18.60;50.00;;;;;;6245827;28;20687;-71
2023/03/04 10:03:57;;;;;;;0.60;0.50;;;18.60;49.90;;;;;;6245568;28;20025;-71
2023/03/04 10:06:59;;;;;;;0.98;0.63;;;18.60;49.90;;;;;;6246017;28;20044;-70
2023/03/04 10:10:13;;;;;;;2.22;0.55;;;18.60;49.90;;;;;;6244345;28;20053;-71
2023/03/04 10:13:24;;;;;;;1.00;0.65;;;18.60;49.90;;;;;;6244348;28;20542;-71
2023/03/04 10:16:35;;;;;;;1.30;0.65;;;18.60;49.80;;;;;;6246023;28;20018;-70
2023/03/04 10:20:02;;;;;;;2.20;0.50;;;18.60;50.00;;;;;;6245553;28;20096;-70
2023/03/04 10:23:20;;;;;;;1.10;0.60;;;18.60;49.90;;;;;;6245271;28;20143;-70
2023/03/04 10:26:21;;;;;;;1.38;0.68;;;18.60;49.90;;;;;;6245474;28;20029;-71
2023/03/04 10:29:23;;;;;;;1.38;0.70;;;18.60;49.90;;;;;;6245528;28;20087;-70
2023/03/04 10:32:24;;;;;;;0.88;0.65;;;18.60;49.90;;;;;;6245401;28;20040;-71
2023/03/04 10:35:35;;;;;;;0.95;0.50;;;18.60;49.90;;;;;;6225347;28;20057;-71
2023/03/04 10:38:40;;;;;;;1.15;0.60;;;18.60;49.90;;;;;;6220760;28;20022;-71
2023/03/04 10:41:53;;;;;;;0.73;0.40;;;18.60;49.90;;;;;;6220345;28;20025;-70
2023/03/04 10:44:57;;;;;;;0.90;0.65;;;18.60;49.90;;;;;;6227372;28;20438;-70
2023/03/04 10:48:01;;;;;;;0.98;0.60;;;18.60;49.90;;;;;;6244576;28;20045;-70
2023/03/04 10:51:21;;;;;;;1.23;0.50;;;18.60;49.90;;;;;;6245501;28;20029;-70
2023/03/04 10:54:35;;;;;;;1.15;0.70;;;18.60;49.90;;;;;;6243497;28;20116;-71
2023/03/04 10:57:38;;;;;;;0.57;0.40;;;18.60;49.90;;;;;;6243923;28;20057;-71
2023/03/04 11:00:39;;;;;;;1.63;0.70;;;18.60;49.90;;;;;;6243078;28;20025;-70
2023/03/04 11:03:47;;;;;;;1.10;0.60;;;18.60;49.90;;;;;;6244516;28;20095;-70
2023/03/04 11:06:48;;;;;;;0.98;0.60;;;18.60;49.90;;;;;;6244244;28;20022;-70
2023/03/04 11:09:49;;;;;;;2.25;0.60;;;18.60;49.90;;;;;;6244356;28;20017;-70
2023/03/04 11:12:54;;;;;;;0.95;0.55;;;18.60;49.90;;;;;;6244604;28;20025;-70
2023/03/04 11:16:02;;;;;;;1.83;0.82;;;18.60;49.80;;;;;;6243411;28;20071;-70
2023/03/04 11:19:15;;;;;;;3.15;0.90;;;18.60;49.90;;;;;;6242845;28;20052;-70
2023/03/04 11:22:19;;;;;;;1.92;0.90;;;18.60;49.90;;;;;;6244536;28;20127;-70
2023/03/04 11:25:27;;;;;;;1.75;0.60;;;18.60;49.80;;;;;;6242653;28;20033;-70
2023/03/04 11:28:48;;;;;;;1.08;0.70;;;18.60;49.90;;;;;;6243018;28;20364;-70
2023/03/04 11:32:06;;;;;;;1.45;0.60;;;18.60;49.90;;;;;;6244097;28;20032;-71
2023/03/04 11:35:21;;;;;;;1.65;0.80;;;18.60;49.80;;;;;;6228027;28;20076;-70
2023/03/04 11:38:49;;;;;;;1.15;0.57;;;18.60;49.80;;;;;;6218152;28;20038;-70
2023/03/04 11:42:27;;;;;;;1.52;0.65;;;18.60;49.80;;;;;;6230949;28;20437;-70
2023/03/04 11:45:53;;;;;;;1.50;0.70;;;18.60;49.80;;;;;;6243311;28;20037;-70
2023/03/04 11:49:39;;;;;;;1.57;0.67;;;18.60;49.80;;;;;;6243091;28;20116;-69
2023/03/04 11:53:05;;;;;;;1.92;0.80;;;18.60;49.80;;;;;;6243406;28;20033;-70
2023/03/04 11:56:18;;;;;;;2.08;0.77;;;18.60;49.80;;;;;;6242380;28;20022;-70
2023/03/04 11:59:45;;;;;;;0.95;0.50;;;18.60;49.80;;;;;;6243488;28;20108;-70
2023/03/04 12:03:05;;;;;;;2.97;0.90;;;18.60;49.70;;;;;;6243622;28;20013;-70
2023/03/04 12:06:31;;;;;;;1.42;0.68;;;18.60;49.80;;;;;;6243218;28;20097;-70
2023/03/04 12:09:32;;;;;;;1.38;0.60;;;18.60;49.80;;;;;;6240004;28;20038;-71
2023/03/04 12:13:03;;;;;;;2.28;0.90;;;18.60;49.70;;;;;;6241459;28;20560;-70
2023/03/04 12:16:19;;;;;;;2.08;1.00;;;18.60;49.80;;;;;;6242074;28;20013;-70
2023/03/04 12:19:41;;;;;;;2.05;0.80;;;18.60;49.70;;;;;;6243341;28;20434;-70
2023/03/04 12:22:54;;;;;;;1.63;0.80;;;18.60;49.70;;;;;;6242541;28;20554;-70
2023/03/04 12:26:00;;;;;;;2.53;0.85;;;18.60;49.70;;;;;;6243460;28;20017;-70
2023/03/04 12:29:21;;;;;;;1.90;0.70;;;18.60;49.70;;;;;;6242243;28;20033;-71
2023/03/04 12:32:43;;;;;;;2.53;0.88;;;18.60;49.70;;;;;;6239088;28;20042;-71
2023/03/04 12:36:24;;;;;;;2.05;0.90;;;18.60;49.70;;;;;;6222436;28;20129;-71
2023/03/04 12:39:32;;;;;;;3.85;1.02;;;18.60;49.60;;;;;;6228293;28;20037;-70
2023/03/04 12:42:45;;;;;;;2.10;0.80;;;18.60;49.70;;;;;;6243025;28;20033;-71
2023/03/04 12:45:59;;;;;;;2.88;0.82;;;18.60;49.70;;;;;;6242193;28;20387;-70
2023/03/04 12:49:19;;;;;;;1.50;0.60;;;18.60;49.60;;;;;;6258366;28;20112;-70
2023/03/04 12:52:32;;;;;;;2.45;0.80;;;18.60;49.60;;;;;;6242435;28;20055;-70
2023/03/04 12:55:39;;;;;;;1.65;0.70;;;18.60;49.70;;;;;;6242909;28;20537;-70
2023/03/04 12:58:40;;;;;;;3.33;1.10;;;18.60;49.60;;;;;;6248138;28;20443;-71
2023/03/04 13:02:01;;;;;;;3.00;1.00;;;18.60;49.50;;;;;;6242559;28;20370;-71
2023/03/04 13:05:27;;;;;;;2.97;1.20;;;18.60;49.60;;;;;;6242554;28;20030;-70
2023/03/04 13:09:06;;;;;;;4.32;1.23;;;18.60;49.50;;;;;;6243162;28;20017;-70
2023/03/04 13:12:19;;;;;;;4.15;1.05;;;18.60;49.50;;;;;;6244155;28;20087;-69
2023/03/04 13:15:30;;;;;;;3.25;1.08;;;18.60;49.50;;;;;;6244654;28;20025;-71
2023/03/04 13:18:36;;;;;;;3.08;1.10;;;18.60;49.60;;;;;;6244091;28;20032;-68
2023/03/04 13:21:45;;;;;;;4.95;1.23;;;18.60;49.50;;;;;;6244086;28;20071;-68
2023/03/04 13:24:49;;;;;;;2.55;0.90;;;18.60;49.50;;;;;;6246915;28;20017;-68
2023/03/04 13:28:10;;;;;;;2.47;0.97;;;18.60;49.40;;;;;;6248561;28;20108;-68
2023/03/04 13:31:14;;;;;;;3.38;1.10;;;18.60;49.60;;;;;;6248448;28;20275;-68
2023/03/04 13:34:52;;;;;;;3.55;1.20;;;18.60;49.50;;;;;;6248897;28;20092;-70
2023/03/04 13:37:58;;;;;;;2.75;1.05;;;18.60;49.50;;;;;;6221872;28;20057;-70
2023/03/04 13:41:30;;;;;;;2.13;1.00;;;18.60;49.50;;;;;;6222928;28;20052;-69
2023/03/04 13:44:42;;;;;;;2.42;1.00;;;18.60;49.50;;;;;;6221988;28;20022;-69
2023/03/04 13:47:45;;;;;;;3.17;1.05;;;18.60;49.50;;;;;;6230889;28;20025;-69
2023/03/04 13:50:48;;;;;;;1.95;0.90;;;18.60;49.50;;;;;;6247216;28;20540;-69
2023/03/04 13:54:13;;;;;;;2.95;1.00;;;18.60;49.40;;;;;;6246935;28;20025;-70
2023/03/04 13:57:19;;;;;;;1.95;0.70;;;18.60;49.40;;;;;;6245429;28;20397;-69
2023/03/04 14:00:20;;;;;;;2.47;0.90;;;18.60;49.40;;;;;;6247895;28;20580;-69
2023/03/04 14:03:27;;;;;;;2.75;1.02;;;18.60;49.40;;;;;;6248761;28;20029;-69
2023/03/04 14:06:31;;;;;;;2.20;0.93;;;18.60;49.40;;;;;;6246497;28;20100;-69
2023/03/04 14:09:33;;;;;;;1.88;0.75;;;18.60;49.40;;;;;;6244821;28;20114;-69
2023/03/04 14:12:36;;;;;;;1.52;0.90;;;18.60;49.50;;;;;;6246247;28;20022;-70
2023/03/04 14:15:38;;;;;;;1.98;0.80;;;18.60;49.50;;;;;;6246935;28;20025;-69
2023/03/04 14:18:39;;;;;;;2.85;1.02;;;18.60;49.40;;;;;;6246104;28;20461;-69
2023/03/04 14:21:44;;;;;;;1.52;0.77;;;18.60;49.40;;;;;;6245693;28;20025;-69
2023/03/04 14:25:18;;;;;;;1.38;0.73;;;18.60;49.40;;;;;;6244900;28;20112;-69
2023/03/04 14:28:20;;;;;;;2.70;1.00;;;18.60;49.40;;;;;;6245599;28;20084;-69
2023/03/04 14:31:23;;;;;;;2.78;0.95;;;18.60;49.30;;;;;;6246174;28;20401;-69
2023/03/04 14:34:33;;;;;;;3.35;1.23;;;18.60;49.40;;;;;;6235898;28;20049;-69
2023/03/04 14:37:47;;;;;;;2.95;1.08;;;18.60;49.40;;;;;;6220997;28;20053;-69
2023/03/04 14:40:52;;;;;;;2.05;0.98;;;18.60;49.30;;;;;;6220884;28;20029;-69
2023/03/04 14:44:03;;;;;;;3.00;0.88;;;18.50;49.30;;;;;;6220881;28;20116;-70
2023/03/04 14:47:35;;;;;;;3.13;1.30;;;18.60;49.40;;;;;;6220472;28;20479;-71
2023/03/04 14:50:35;;;;;;;1.92;1.00;;;18.60;49.30;;;;;;6239662;28;20045;-70
2023/03/04 14:53:52;;;;;;;2.63;1.00;;;18.60;49.30;;;;;;6244130;28;20100;-69
2023/03/04 14:56:53;;;;;;;2.70;0.90;;;18.60;49.40;;;;;;6245527;28;20027;-70
2023/03/04 14:59:53;;;;;;;2.08;0.90;;;18.60;49.40;;;;;;6244935;28;20025;-70
2023/03/04 15:03:05;;;;;;;1.58;0.80;;;18.60;49.30;;;;;;6243796;28;20025;-69
2023/03/04 15:06:21;;;;;;;5.03;1.00;;;18.60;49.40;;;;;;6243486;28;20029;-70
2023/03/04 15:09:25;;;;;;;3.42;1.25;;;18.60;49.30;;;;;;6245299;28;20067;-71
2023/03/04 15:12:30;;;;;;;2.80;1.10;;;18.50;49.30;;;;;;6243695;28;20032;-70
2023/03/04 15:15:44;;;;;;;2.38;1.00;;;18.50;49.30;;;;;;6244924;28;20030;-70
2023/03/04 15:19:22;;;;;;;2.05;0.93;;;18.50;49.30;;;;;;6246031;28;20040;-70
2023/03/04 15:22:22;;;;;;;2.10;1.00;;;18.50;49.30;;;;;;6244036;28;20022;-70
2023/03/04 15:25:23;;;;;;;3.10;1.10;;;18.50;49.30;;;;;;6244428;28;20033;-71
2023/03/04 15:28:25;;;;;;;2.58;0.75;;;18.50;49.30;;;;;;6244844;28;20662;-71
2023/03/04 15:31:28;;;;;;;3.25;1.20;;;18.50;49.30;;;;;;6234727;28;20033;-70
2023/03/04 15:34:28;;;;;;;1.02;0.70;;;18.50;49.30;;;;;;6219645;28;20045;-70
2023/03/04 15:37:29;;;;;;;2.67;1.13;;;18.50;49.40;;;;;;6219836;28;20033;-70
2023/03/04 15:40:31;;;;;;;3.42;1.10;;;18.50;49.40;;;;;;6232304;28;20109;-71
2023/03/04 15:43:32;;;;;;;2.40;1.20;;;18.50;49.40;;;;;;6244050;28;20453;-70
2023/03/04 15:46:32;;;;;;;4.32;1.48;;;18.50;49.40;;;;;;6244043;28;20024;-71
2023/03/04 15:49:34;;;;;;;3.03;1.20;;;18.50;49.40;;;;;;6242593;28;20047;-70
2023/03/04 15:52:36;;;;;;;2.08;1.15;;;18.50;49.40;;;;;;6244397;28;20570;-68
2023/03/04 15:55:37;;;;;;;2.35;0.90;;;18.50;49.40;;;;;;6243629;28;20034;-68
2023/03/04 17:02:13;;;;;;;1.58;0.77;;;18.50;49.50;;;;;;6271136;28;20037;-68
2023/03/04 17:05:18;;;;;;;1.88;0.73;;;18.50;49.50;;;;;;6273497;28;20017;-68
2023/03/04 17:08:19;;;;;;;3.90;0.88;;;18.50;49.50;;;;;;6256321;28;20079;-68